Time;durP1;ratioP1;P1;durP2;ratioP2;P2;SDS_P1;SDS_P2;PMS_P1;PMS_P2;Temp;Humidity;BMP_temperature;BMP_pressure;BME280_temperature;BME280_humidity;BME280_pressure;Samples;Min_cycle;Max_cycle;Signal;HPM_P1;HPM_P2
2021/07/27 00:01:32;;;;;;;26.20;14.73;;;15.60;99.90;;;;;;4949079;28;20400;-80
2021/07/27 00:03:59;;;;;;;24.15;14.65;;;15.50;99.90;;;;;;4955611;28;20672;-80
2021/07/27 00:06:26;;;;;;;25.75;15.30;;;15.50;99.90;;;;;;4954077;28;20046;-79
2021/07/27 00:08:53;;;;;;;29.52;15.25;;;15.50;99.90;;;;;;4938380;28;20512;-79
2021/07/27 00:11:20;;;;;;;32.25;15.85;;;15.50;99.90;;;;;;4944463;28;20263;-80
2021/07/27 00:13:50;;;;;;;23.75;14.50;;;15.50;99.90;;;;;;4930561;29;20047;-79
2021/07/27 00:16:18;;;;;;;24.98;15.27;;;15.50;99.90;;;;;;4917481;29;20051;-79
2021/07/27 00:18:45;;;;;;;26.92;16.20;;;15.50;99.90;;;;;;4934684;29;20059;-80
2021/07/27 00:21:12;;;;;;;21.23;13.80;;;15.40;99.90;;;;;;4958092;28;20050;-79
2021/07/27 00:23:39;;;;;;;22.17;15.10;;;15.30;99.90;;;;;;4955521;28;20050;-79
2021/07/27 00:26:14;;;;;;;24.45;15.15;;;15.50;99.90;;;;;;4954376;28;20062;-80
2021/07/27 00:28:41;;;;;;;;;;;15.40;99.90;;;;;;4955674;28;20055;-79
2021/07/27 00:31:18;;;;;;;24.67;15.02;;;15.40;99.90;;;;;;4970702;28;19922;-80
2021/07/27 00:33:46;;;;;;;25.75;15.35;;;15.30;99.90;;;;;;4939272;28;20102;-80
2021/07/27 00:36:14;;;;;;;29.88;16.35;;;15.30;99.90;;;;;;4957040;28;20047;-80
2021/07/27 00:38:41;;;;;;;23.10;14.77;;;15.30;99.90;;;;;;4928520;28;20416;-80
2021/07/27 00:41:07;;;;;;;25.50;16.45;;;15.30;99.90;;;;;;4958300;28;20126;-80
2021/07/27 00:43:34;;;;;;;32.28;16.75;;;15.40;99.90;;;;;;4904843;29;20115;-80
2021/07/27 00:46:01;;;;;;;32.60;19.08;;;15.30;99.90;;;;;;4935941;29;20047;-80
2021/07/27 00:48:28;;;;;;;30.48;18.33;;;15.30;99.90;;;;;;4935451;29;20065;-79
2021/07/27 00:50:55;;;;;;;31.70;16.33;;;15.10;99.90;;;;;;4923077;28;20169;-78
2021/07/27 00:53:22;;;;;;;31.77;17.20;;;15.20;99.90;;;;;;4952285;28;20609;-79
2021/07/27 00:55:51;;;;;;;36.08;18.88;;;15.10;99.90;;;;;;4970509;28;20161;-80
2021/07/27 00:58:20;;;;;;;30.25;15.70;;;15.00;99.90;;;;;;4939697;28;20053;-80
2021/07/27 01:00:47;;;;;;;34.50;17.67;;;15.10;99.90;;;;;;4953663;28;20518;-80
2021/07/27 01:03:15;;;;;;;31.25;16.30;;;15.20;99.90;;;;;;4931595;28;20043;-80
2021/07/27 01:05:44;;;;;;;30.38;16.60;;;15.10;99.90;;;;;;4966716;28;20488;-79
2021/07/27 01:08:12;;;;;;;26.30;16.92;;;15.10;99.90;;;;;;4941566;28;20085;-80
2021/07/27 01:10:39;;;;;;;35.08;18.02;;;15.10;99.90;;;;;;4935663;29;20043;-79
2021/07/27 01:13:10;;;;;;;33.25;18.15;;;15.10;99.90;;;;;;4954543;28;20043;-79
2021/07/27 01:15:36;;;;;;;29.67;16.63;;;15.10;99.90;;;;;;4953259;28;20039;-80
2021/07/27 01:18:07;;;;;;;25.83;16.30;;;15.00;99.90;;;;;;4968152;28;20133;-80
2021/07/27 01:20:49;;;;;;;28.70;17.83;;;15.00;99.90;;;;;;4948954;28;20174;-80
2021/07/27 01:39:49;;;;;;;32.63;17.08;;;14.80;99.90;;;;;;4939439;28;20157;-80
2021/07/27 01:42:18;;;;;;;31.08;18.23;;;14.80;99.90;;;;;;4932865;28;20051;-79
2021/07/27 01:44:46;;;;;;;34.65;19.55;;;14.70;99.90;;;;;;4955771;28;20057;-79
2021/07/27 01:47:20;;;;;;;32.17;17.88;;;14.60;99.90;;;;;;4958605;28;20114;-79
2021/07/27 01:49:54;;;;;;;24.38;15.73;;;14.70;99.90;;;;;;4950835;28;20042;-79
2021/07/27 01:52:24;;;;;;;37.33;19.80;;;14.70;99.90;;;;;;4955769;28;20225;-80
2021/07/27 01:54:54;;;;;;;23.67;15.27;;;14.60;99.90;;;;;;4940186;28;20051;-79
2021/07/27 01:57:23;;;;;;;32.03;18.20;;;14.50;99.90;;;;;;4972814;28;20292;-81
2021/07/27 02:00:02;;;;;;;32.37;18.83;;;14.50;99.90;;;;;;4926595;28;20130;-79
2021/07/27 02:02:31;;;;;;;;;;;14.40;99.90;;;;;;4972846;28;20050;-80
2021/07/27 02:04:58;;;;;;;28.50;16.45;;;14.60;99.90;;;;;;4937310;28;20698;-79
2021/07/27 02:07:28;;;;;;;35.92;18.08;;;14.60;99.90;;;;;;4943946;28;20574;-79
2021/07/27 02:10:03;;;;;;;35.75;18.55;;;14.50;99.90;;;;;;4956156;28;20130;-79
2021/07/27 02:12:36;;;;;;;35.38;17.45;;;14.30;99.90;;;;;;4956754;28;20257;-79
2021/07/27 02:15:04;;;;;;;30.98;16.90;;;14.20;99.90;;;;;;4951192;28;20439;-80
2021/07/27 02:17:35;;;;;;;35.05;17.75;;;14.10;99.90;;;;;;4949322;29;20712;-80
2021/07/27 02:20:06;;;;;;;31.02;16.95;;;14.10;99.90;;;;;;4951541;28;20070;-79
2021/07/27 02:22:37;;;;;;;30.70;17.17;;;14.00;99.90;;;;;;4955774;28;20054;-79
2021/07/27 02:25:05;;;;;;;26.00;15.48;;;14.00;99.90;;;;;;4957317;28;20199;-80
2021/07/27 02:27:32;;;;;;;29.08;16.33;;;14.00;99.90;;;;;;4924436;28;20079;-80
2021/07/27 02:30:01;;;;;;;26.30;15.00;;;14.00;99.90;;;;;;4973655;28;20368;-80
2021/07/27 02:32:28;;;;;;;28.42;16.10;;;14.00;99.90;;;;;;4956127;28;20055;-79
2021/07/27 02:34:54;;;;;;;25.05;14.50;;;13.90;99.90;;;;;;4958824;28;20066;-79
2021/07/27 02:37:21;;;;;;;23.73;13.88;;;13.90;99.90;;;;;;4929767;28;20185;-78
2021/07/27 02:39:49;;;;;;;29.67;15.35;;;13.90;99.90;;;;;;4959202;28;20059;-79
2021/07/27 02:42:15;;;;;;;36.80;16.65;;;13.80;99.90;;;;;;4964972;28;20621;-79
2021/07/27 02:44:42;;;;;;;32.75;16.90;;;13.90;99.90;;;;;;4949754;28;20047;-79
2021/07/27 02:47:09;;;;;;;29.08;15.27;;;13.90;99.90;;;;;;4948352;28;20035;-81
2021/07/27 02:49:38;;;;;;;31.50;17.00;;;14.00;99.90;;;;;;4940924;29;20047;-80
2021/07/27 02:52:05;;;;;;;25.50;15.27;;;14.00;99.90;;;;;;4965544;28;20046;-81
2021/07/27 02:54:36;;;;;;;32.85;16.98;;;14.00;99.90;;;;;;4940880;28;20061;-79
2021/07/27 02:57:03;;;;;;;34.10;18.25;;;14.20;99.90;;;;;;4956906;28;20043;-80
2021/07/27 02:59:32;;;;;;;32.92;17.15;;;14.20;99.90;;;;;;4958504;28;20054;-79
2021/07/27 03:02:00;;;;;;;27.33;14.95;;;14.30;99.90;;;;;;4939647;28;20070;-80
2021/07/27 03:04:27;;;;;;;31.63;16.70;;;14.40;99.90;;;;;;4975390;28;20116;-81
2021/07/27 03:06:54;;;;;;;35.10;16.52;;;14.50;99.90;;;;;;4921992;28;20051;-80
2021/07/27 03:09:27;;;;;;;28.65;16.02;;;14.60;99.90;;;;;;4934830;29;20075;-81
2021/07/27 03:11:54;;;;;;;40.92;18.17;;;14.60;99.90;;;;;;4971456;28;20051;-79
2021/07/27 03:14:20;;;;;;;29.48;16.48;;;14.70;99.90;;;;;;4971463;28;20105;-80
2021/07/27 03:16:47;;;;;;;33.05;18.10;;;14.80;99.90;;;;;;4953809;28;20082;-81
2021/07/27 03:19:17;;;;;;;30.80;16.95;;;14.70;99.90;;;;;;4955905;28;20043;-79
2021/07/27 03:21:44;;;;;;;35.65;19.42;;;14.60;99.90;;;;;;4971135;28;20050;-79
2021/07/27 03:24:10;;;;;;;28.75;14.82;;;14.60;99.90;;;;;;4955452;28;20267;-80
2021/07/27 03:26:37;;;;;;;35.70;18.65;;;14.70;99.90;;;;;;4971747;28;20050;-79
2021/07/27 03:29:07;;;;;;;30.95;17.58;;;14.80;99.90;;;;;;4971586;28;20047;-80
2021/07/27 03:31:34;;;;;;;36.20;17.33;;;14.80;99.90;;;;;;4954064;28;20760;-80
2021/07/27 03:34:01;;;;;;;30.05;14.55;;;14.70;99.90;;;;;;4958476;28;20086;-80
2021/07/27 03:36:29;;;;;;;31.17;17.08;;;14.80;99.90;;;;;;4967229;28;20484;-79
2021/07/27 03:38:56;;;;;;;31.88;16.13;;;14.80;99.90;;;;;;4948880;28;20047;-79
2021/07/27 03:41:29;;;;;;;32.05;17.05;;;14.80;99.90;;;;;;4951883;28;20108;-79
2021/07/27 03:43:56;;;;;;;31.67;16.35;;;14.80;99.90;;;;;;4960734;28;20215;-80
2021/07/27 03:46:24;;;;;;;27.83;17.13;;;14.80;99.90;;;;;;4948295;28;20050;-79
2021/07/27 03:48:54;;;;;;;28.67;15.80;;;14.60;99.90;;;;;;4967643;28;20137;-80
2021/07/27 03:51:22;;;;;;;30.80;17.23;;;14.70;99.90;;;;;;4943297;28;20107;-79
2021/07/27 03:53:49;;;;;;;44.00;18.85;;;14.70;99.90;;;;;;4930850;28;20078;-79
2021/07/27 03:56:16;;;;;;;36.47;18.02;;;14.70;99.90;;;;;;4965065;28;20061;-79
2021/07/27 03:58:44;;;;;;;32.58;16.08;;;14.70;99.90;;;;;;4918177;28;20312;-81
2021/07/27 04:01:11;;;;;;;34.40;16.55;;;14.70;99.90;;;;;;4912918;28;20342;-80
2021/07/27 04:03:37;;;;;;;31.65;18.23;;;14.80;99.90;;;;;;4968737;28;20066;-80
2021/07/27 04:06:05;;;;;;;32.47;16.10;;;14.90;99.90;;;;;;4968129;28;20038;-80
2021/07/27 04:08:32;;;;;;;34.92;17.88;;;15.00;99.90;;;;;;4925842;28;20054;-80
2021/07/27 04:11:02;;;;;;;27.67;15.73;;;14.90;99.90;;;;;;4942017;28;20724;-80
2021/07/27 04:13:32;;;;;;;31.52;16.63;;;14.90;99.90;;;;;;4935764;28;20066;-80
2021/07/27 04:16:01;;;;;;;34.40;18.05;;;14.90;99.90;;;;;;4963701;28;20739;-80
2021/07/27 04:18:28;;;;;;;30.77;15.65;;;15.00;99.90;;;;;;4926602;28;20047;-80
2021/07/27 04:21:00;;;;;;;31.55;15.48;;;15.10;99.90;;;;;;4927913;28;20724;-80
2021/07/27 04:23:27;;;;;;;29.02;15.95;;;15.00;99.90;;;;;;4951431;28;20150;-79
2021/07/27 04:25:54;;;;;;;36.15;15.07;;;15.10;99.90;;;;;;4935001;28;20053;-79
2021/07/27 04:28:21;;;;;;;25.65;15.70;;;15.20;99.90;;;;;;4936038;28;20062;-80
2021/07/27 04:30:47;;;;;;;28.25;15.60;;;15.10;99.90;;;;;;4935318;28;20062;-80
2021/07/27 04:33:18;;;;;;;32.20;15.63;;;15.20;99.90;;;;;;4967868;28;20046;-78
2021/07/27 04:35:45;;;;;;;28.25;15.60;;;15.30;99.90;;;;;;4956882;28;20047;-78
2021/07/27 04:38:13;;;;;;;22.40;15.10;;;15.30;99.90;;;;;;4945230;28;20035;-80
2021/07/27 04:40:41;;;;;;;24.63;15.00;;;15.40;99.90;;;;;;4958952;28;20105;-79
2021/07/27 04:43:08;;;;;;;24.23;15.43;;;15.50;99.90;;;;;;4958195;28;20574;-80
2021/07/27 04:45:41;;;;;;;26.50;16.10;;;15.60;99.90;;;;;;4927029;28;20042;-79
2021/07/27 04:48:08;;;;;;;25.60;14.52;;;15.60;99.90;;;;;;4933174;29;20051;-78
2021/07/27 04:50:46;;;;;;;24.90;14.65;;;15.60;99.90;;;;;;4950026;28;20127;-80
2021/07/27 04:53:21;;;;;;;29.08;15.55;;;15.60;99.90;;;;;;4947321;28;20347;-80
2021/07/27 04:55:49;;;;;;;24.30;14.80;;;15.60;99.90;;;;;;4937613;28;20046;-79
2021/07/27 04:58:16;;;;;;;24.50;14.88;;;15.60;99.90;;;;;;4954114;28;20065;-81
2021/07/27 05:00:43;;;;;;;24.67;15.20;;;15.60;99.90;;;;;;4969692;28;20533;-81
2021/07/27 05:03:11;;;;;;;23.08;14.00;;;15.70;99.90;;;;;;4950386;29;20106;-79
2021/07/27 05:05:39;;;;;;;23.85;14.50;;;15.80;99.90;;;;;;4969900;28;20057;-78
2021/07/27 05:08:06;;;;;;;22.75;15.35;;;15.90;99.90;;;;;;4929439;28;20450;-78
2021/07/27 05:10:33;;;;;;;32.47;18.98;;;15.90;99.90;;;;;;4968826;28;20049;-80
2021/07/27 05:13:00;;;;;;;29.60;17.60;;;15.90;99.90;;;;;;4954939;28;20057;-79
2021/07/27 05:15:27;;;;;;;31.15;17.10;;;16.00;99.90;;;;;;4929768;28;20062;-79
2021/07/27 05:17:57;;;;;;;28.90;19.50;;;16.10;99.90;;;;;;4943244;28;20050;-81
2021/07/27 05:20:24;;;;;;;27.92;17.90;;;16.00;99.90;;;;;;4956961;28;20078;-79
2021/07/27 05:22:55;;;;;;;27.05;18.67;;;16.10;99.90;;;;;;4941571;28;20077;-79
2021/07/27 05:25:22;;;;;;;31.50;19.05;;;16.00;99.90;;;;;;4941913;28;20081;-81
2021/07/27 05:28:09;;;;;;;29.00;18.83;;;16.10;99.90;;;;;;4958167;28;20050;-81
2021/07/27 05:30:37;;;;;;;29.88;19.90;;;16.10;99.90;;;;;;4957492;28;20051;-80
2021/07/27 05:33:05;;;;;;;33.45;19.50;;;16.10;99.90;;;;;;4954257;28;20066;-80
2021/07/27 05:35:35;;;;;;;34.30;21.70;;;16.20;99.90;;;;;;4933127;28;20050;-81
2021/07/27 05:38:09;;;;;;;29.17;21.00;;;16.20;99.90;;;;;;4944916;28;20119;-80
2021/07/27 05:40:37;;;;;;;30.50;20.25;;;16.40;99.90;;;;;;4924729;29;20074;-80
2021/07/27 05:43:05;;;;;;;35.75;20.88;;;16.50;99.90;;;;;;4942020;28;20271;-80
2021/07/27 05:45:32;;;;;;;29.23;20.23;;;16.50;99.90;;;;;;4941649;28;20415;-81
2021/07/27 05:48:09;;;;;;;29.58;19.83;;;16.60;99.90;;;;;;4952158;28;20046;-81
2021/07/27 05:50:40;;;;;;;32.65;22.27;;;16.60;99.90;;;;;;4955597;28;20035;-81
2021/07/27 05:53:07;;;;;;;29.30;20.30;;;16.60;99.90;;;;;;4939512;28;20439;-82
2021/07/27 05:55:34;;;;;;;32.08;20.27;;;16.60;99.90;;;;;;4939587;28;20412;-82
2021/07/27 05:58:02;;;;;;;27.33;20.15;;;16.70;99.90;;;;;;4943394;29;20055;-80
2021/07/27 06:00:29;;;;;;;32.85;22.58;;;16.70;99.90;;;;;;4921810;28;20063;-80
2021/07/27 06:02:56;;;;;;;28.58;20.95;;;16.80;99.90;;;;;;4954959;28;20089;-82
2021/07/27 06:05:22;;;;;;;28.70;22.00;;;17.00;99.90;;;;;;4948469;28;21706;-79
2021/07/27 06:07:49;;;;;;;26.60;19.00;;;17.20;99.90;;;;;;4937117;28;20043;-81
2021/07/27 06:10:16;;;;;;;25.50;19.20;;;17.30;99.90;;;;;;4952758;28;20062;-81
2021/07/27 06:12:43;;;;;;;25.23;19.05;;;17.40;99.90;;;;;;4973632;28;20579;-80
2021/07/27 06:15:10;;;;;;;32.85;18.42;;;17.40;99.90;;;;;;4950752;28;20050;-81
2021/07/27 06:17:37;;;;;;;29.88;20.77;;;17.40;99.90;;;;;;4950921;28;20042;-78
2021/07/27 06:20:05;;;;;;;26.02;17.85;;;17.50;99.90;;;;;;4957182;28;20053;-82
2021/07/27 06:22:35;;;;;;;30.13;20.60;;;17.40;99.90;;;;;;4956865;28;20066;-82
2021/07/27 06:25:10;;;;;;;29.08;20.85;;;17.40;99.90;;;;;;4925456;28;20129;-81
2021/07/27 06:27:43;;;;;;;27.30;20.02;;;17.30;99.90;;;;;;4953189;28;20051;-79
2021/07/27 06:30:12;;;;;;;28.83;21.00;;;17.30;99.90;;;;;;4950476;28;20039;-81
2021/07/27 06:32:39;;;;;;;28.13;20.10;;;17.20;99.90;;;;;;4938430;28;20398;-80
2021/07/27 06:35:15;;;;;;;31.30;22.52;;;17.30;99.90;;;;;;4959579;28;20078;-81
2021/07/27 06:37:45;;;;;;;30.52;22.15;;;17.30;99.90;;;;;;4946478;28;20050;-81
2021/07/27 06:40:13;;;;;;;37.88;22.77;;;17.30;99.90;;;;;;4945725;28;20057;-82
2021/07/27 06:42:43;;;;;;;33.70;22.27;;;17.40;99.90;;;;;;4966980;28;20051;-83
2021/07/27 06:45:14;;;;;;;32.30;22.73;;;17.50;99.90;;;;;;4951654;28;20531;-82
2021/07/27 06:47:41;;;;;;;28.08;20.40;;;17.70;99.90;;;;;;4951647;28;20053;-81
2021/07/27 06:50:08;;;;;;;27.63;20.70;;;17.90;99.90;;;;;;4952878;28;20503;-81
2021/07/27 06:52:35;;;;;;;26.80;19.55;;;18.10;99.90;;;;;;4937975;28;20130;-82
2021/07/27 06:55:02;;;;;;;24.23;17.50;;;18.30;99.90;;;;;;4924132;28;20071;-84
2021/07/27 06:57:29;;;;;;;22.58;16.80;;;18.50;99.90;;;;;;4938934;28;20137;-82
2021/07/27 06:59:56;;;;;;;24.60;18.30;;;18.60;99.90;;;;;;4924717;28;20050;-86
2021/07/27 07:02:24;;;;;;;22.05;17.83;;;18.70;99.90;;;;;;4955893;28;20125;-82
2021/07/27 07:04:50;;;;;;;23.15;18.25;;;18.60;99.90;;;;;;4938893;28;20047;-83
2021/07/27 07:07:18;;;;;;;24.63;18.25;;;18.60;99.90;;;;;;4930441;28;20544;-83
2021/07/27 07:09:45;;;;;;;22.90;18.65;;;18.60;99.90;;;;;;4931476;28;20043;-85
2021/07/27 07:12:18;;;;;;;23.85;18.67;;;18.60;99.90;;;;;;4923408;28;20063;-86
2021/07/27 07:14:45;;;;;;;23.30;18.58;;;18.60;99.90;;;;;;4939682;28;20062;-84
2021/07/27 07:17:15;;;;;;;23.80;18.65;;;18.40;99.90;;;;;;4955020;28;20051;-85
2021/07/27 07:19:44;;;;;;;25.13;18.02;;;18.50;99.90;;;;;;4933147;28;20062;-86
2021/07/27 07:22:30;;;;;;;27.35;20.40;;;18.50;99.90;;;;;;4948757;28;20109;-85
2021/07/27 07:25:01;;;;;;;27.00;20.02;;;18.60;99.90;;;;;;4971593;28;20078;-83
2021/07/27 07:27:28;;;;;;;21.33;17.45;;;18.70;99.90;;;;;;4986420;28;20499;-85
2021/07/27 07:29:59;;;;;;;26.75;18.88;;;18.80;99.90;;;;;;4954398;28;20043;-88
2021/07/27 07:32:40;;;;;;;23.73;17.92;;;18.90;99.90;;;;;;4939527;28;20059;-85
2021/07/27 07:35:07;;;;;;;23.40;18.52;;;19.00;99.90;;;;;;4950689;28;20058;-86
2021/07/27 07:37:38;;;;;;;20.40;17.17;;;19.10;99.90;;;;;;4964142;28;20043;-87
2021/07/27 07:40:09;;;;;;;22.25;16.95;;;19.30;99.90;;;;;;4959206;28;20047;-85
2021/07/27 07:42:36;;;;;;;19.58;17.35;;;19.40;99.90;;;;;;4951994;29;20031;-83
2021/07/27 07:45:06;;;;;;;18.83;16.08;;;19.50;99.90;;;;;;4963784;29;20058;-85
2021/07/27 07:47:33;;;;;;;19.35;16.70;;;19.80;99.90;;;;;;4933831;29;20044;-78
2021/07/27 07:50:00;;;;;;;26.33;17.10;;;20.10;99.90;;;;;;4945695;28;20520;-80
2021/07/27 07:52:27;;;;;;;18.90;16.13;;;20.20;99.90;;;;;;4973993;28;20050;-81
2021/07/27 07:54:54;;;;;;;20.63;15.95;;;20.40;99.90;;;;;;4945619;28;20054;-84
2021/07/27 07:57:21;;;;;;;20.50;15.77;;;20.30;99.90;;;;;;4940294;28;20499;-83
2021/07/27 07:59:49;;;;;;;20.13;16.83;;;20.10;99.90;;;;;;4923156;28;20054;-81
2021/07/27 08:02:16;;;;;;;19.73;17.02;;;20.30;99.90;;;;;;4937251;28;20480;-83
2021/07/27 08:04:43;;;;;;;22.98;17.45;;;20.30;99.90;;;;;;4952217;28;20053;-86
2021/07/27 08:07:10;;;;;;;17.88;16.00;;;20.20;99.90;;;;;;4943473;28;20122;-82
2021/07/27 08:09:36;;;;;;;19.02;16.13;;;20.30;99.90;;;;;;4950052;28;20044;-83
2021/07/27 08:12:07;;;;;;;19.50;16.40;;;20.60;99.90;;;;;;4935286;28;20058;-82
2021/07/27 08:14:46;;;;;;;19.17;17.17;;;20.90;99.90;;;;;;4904092;29;20053;-84
2021/07/27 08:17:16;;;;;;;22.35;18.40;;;21.20;99.90;;;;;;4918796;29;20051;-81
2021/07/27 08:19:49;;;;;;;22.75;19.08;;;21.40;99.90;;;;;;4923123;28;20104;-83
2021/07/27 08:22:19;;;;;;;26.30;19.48;;;21.20;99.90;;;;;;4953597;28;20632;-87
2021/07/27 08:24:53;;;;;;;26.90;21.05;;;21.00;99.90;;;;;;4923234;28;20046;-82
2021/07/27 08:27:35;;;;;;;26.70;20.27;;;21.30;99.90;;;;;;4953479;28;20119;-87
2021/07/27 08:30:08;;;;;;;25.65;20.95;;;21.60;99.90;;;;;;4938214;28;20077;-82
2021/07/27 08:32:35;;;;;;;26.15;20.48;;;21.80;99.90;;;;;;4953143;28;20137;-84
2021/07/27 08:35:02;;;;;;;24.45;20.92;;;21.50;99.90;;;;;;4950623;28;20495;-82
2021/07/27 08:37:29;;;;;;;23.25;19.52;;;21.20;99.90;;;;;;4931576;28;20150;-83
2021/07/27 08:39:59;;;;;;;25.48;20.88;;;21.10;99.90;;;;;;4925891;29;20055;-84
2021/07/27 08:42:29;;;;;;;27.83;20.27;;;21.00;99.90;;;;;;4950305;28;20089;-82
2021/07/27 08:45:03;;;;;;;27.77;19.52;;;20.70;99.90;;;;;;4918790;29;20110;-82
2021/07/27 08:47:34;;;;;;;29.55;20.33;;;20.70;99.90;;;;;;4935690;29;20054;-82
2021/07/27 08:50:04;;;;;;;27.85;20.48;;;20.50;99.90;;;;;;4923609;28;20051;-84
2021/07/27 08:52:31;;;;;;;26.10;19.75;;;20.60;99.90;;;;;;4920790;28;20133;-87
2021/07/27 08:54:58;;;;;;;25.83;20.95;;;21.00;99.90;;;;;;4937006;28;20059;-82
2021/07/27 08:57:28;;;;;;;23.23;18.92;;;21.40;99.90;;;;;;4953062;28;20577;-84
2021/07/27 08:59:56;;;;;;;27.77;20.63;;;21.70;99.90;;;;;;4953675;28;20054;-82
2021/07/27 09:02:33;;;;;;;24.80;20.98;;;21.70;99.90;;;;;;4954088;28;20050;-84
2021/07/27 09:05:13;;;;;;;20.83;17.85;;;22.00;99.90;;;;;;4939972;29;20061;-82
2021/07/27 09:07:46;;;;;;;20.08;17.95;;;22.50;99.90;;;;;;4949474;28;20091;-83
2021/07/27 09:10:18;;;;;;;20.92;18.40;;;22.60;99.90;;;;;;4903356;29;20432;-82
2021/07/27 09:13:04;;;;;;;20.67;18.05;;;22.80;99.90;;;;;;4929397;28;20050;-83
2021/07/27 09:15:40;;;;;;;20.42;18.27;;;23.00;99.90;;;;;;4917394;29;20134;-84
2021/07/27 09:18:19;;;;;;;19.58;17.55;;;22.90;99.90;;;;;;4934361;29;20053;-81
2021/07/27 09:20:53;;;;;;;19.40;17.48;;;23.10;99.90;;;;;;4902806;29;20046;-84
2021/07/27 09:23:27;;;;;;;19.92;17.85;;;23.00;99.90;;;;;;4959425;28;20050;-82
2021/07/27 09:25:59;;;;;;;18.75;16.95;;;23.20;99.90;;;;;;4936810;28;20492;-83
2021/07/27 09:28:27;;;;;;;19.35;17.35;;;23.20;99.90;;;;;;4937065;28;20043;-83
2021/07/27 09:31:00;;;;;;;19.00;17.20;;;23.40;99.90;;;;;;4920923;28;20066;-83
2021/07/27 09:33:32;;;;;;;20.27;18.30;;;23.40;99.90;;;;;;4949084;29;20054;-82
2021/07/27 09:36:00;;;;;;;19.02;17.23;;;23.10;99.90;;;;;;4960185;28;20050;-83
2021/07/27 09:38:31;;;;;;;18.00;16.10;;;23.00;99.90;;;;;;4962196;28;20054;-85
2021/07/27 09:41:00;;;;;;;17.15;15.55;;;23.00;99.90;;;;;;4937287;28;20130;-83
2021/07/27 09:43:43;;;;;;;17.73;15.90;;;23.20;99.90;;;;;;4954800;28;20054;-85
2021/07/27 09:46:10;;;;;;;17.77;16.05;;;23.40;99.90;;;;;;4970696;28;20128;-83
2021/07/27 09:48:41;;;;;;;18.65;16.85;;;23.30;99.90;;;;;;4939933;28;20248;-82
2021/07/27 09:51:12;;;;;;;18.42;16.67;;;22.80;99.90;;;;;;4924250;28;20118;-85
2021/07/27 09:53:41;;;;;;;17.77;16.15;;;22.80;99.90;;;;;;4921850;28;20513;-83
2021/07/27 09:56:08;;;;;;;18.48;16.77;;;23.00;99.90;;;;;;4953520;28;20055;-81
2021/07/27 09:58:41;;;;;;;19.40;17.30;;;23.30;99.90;;;;;;4956902;28;20069;-82
2021/07/27 10:01:21;;;;;;;19.42;17.80;;;23.60;99.90;;;;;;4922491;28;20274;-81
2021/07/27 10:03:58;;;;;;;19.77;18.02;;;23.60;99.90;;;;;;4926802;28;20047;-83
2021/07/27 10:06:36;;;;;;;18.92;17.02;;;23.90;99.90;;;;;;4925389;28;20103;-83
2021/07/27 10:09:06;;;;;;;20.58;18.50;;;24.00;99.90;;;;;;4940720;29;20047;-85
2021/07/27 10:11:44;;;;;;;18.70;17.20;;;23.90;99.90;;;;;;4922106;29;20043;-83
2021/07/27 10:14:16;;;;;;;18.95;17.00;;;23.90;99.90;;;;;;4932283;28;20451;-86
2021/07/27 10:16:45;;;;;;;19.50;17.80;;;23.80;99.90;;;;;;4940852;28;20411;-84
2021/07/27 10:19:22;;;;;;;19.25;17.45;;;23.60;99.90;;;;;;4924606;28;20050;-83
2021/07/27 10:22:10;;;;;;;21.20;19.02;;;23.50;99.90;;;;;;4943384;28;20825;-86
2021/07/27 10:24:47;;;;;;;21.27;19.27;;;23.40;99.90;;;;;;4938157;29;20061;-82
2021/07/27 10:27:21;;;;;;;18.50;16.95;;;23.50;99.90;;;;;;4920809;29;20043;-82
2021/07/27 10:30:07;;;;;;;19.33;17.63;;;23.70;99.90;;;;;;4907252;29;20534;-82
2021/07/27 10:32:40;;;;;;;19.38;17.48;;;23.90;99.90;;;;;;4937787;29;20547;-84
2021/07/27 10:35:35;;;;;;;18.08;16.50;;;24.00;99.90;;;;;;4937897;28;20516;-81
2021/07/27 10:38:13;;;;;;;19.13;17.33;;;23.90;99.90;;;;;;4947616;28;20078;-83
2021/07/27 10:40:45;;;;;;;18.58;17.13;;;23.50;99.90;;;;;;4953028;28;20086;-83
2021/07/27 10:43:32;;;;;;;17.77;16.27;;;23.50;99.90;;;;;;4908169;29;20072;-83
2021/07/27 10:46:28;;;;;;;19.35;17.65;;;23.70;99.90;;;;;;4947894;28;20082;-84
2021/07/27 10:49:19;;;;;;;18.17;16.67;;;23.80;99.90;;;;;;4943564;28;20113;-82
2021/07/27 10:51:47;;;;;;;;;;;23.60;99.90;;;;;;4955250;28;20057;-86
2021/07/27 10:54:29;;;;;;;18.02;16.42;;;23.60;99.90;;;;;;4941121;28;19932;-83
2021/07/27 10:57:07;;;;;;;18.50;16.70;;;23.40;99.90;;;;;;4923248;29;20146;-83
2021/07/27 10:59:48;;;;;;;19.58;17.67;;;23.20;99.90;;;;;;4921210;28;20110;-82
2021/07/27 11:02:23;;;;;;;18.27;16.80;;;23.10;99.90;;;;;;4956252;28;20082;-84
2021/07/27 11:04:50;;;;;;;17.40;16.10;;;23.20;99.90;;;;;;4939033;28;20054;-80
2021/07/27 11:07:21;;;;;;;17.48;15.82;;;23.60;99.90;;;;;;4937521;28;20245;-82
2021/07/27 11:09:56;;;;;;;17.83;16.52;;;23.70;99.90;;;;;;4922711;28;20109;-83
2021/07/27 11:12:34;;;;;;;17.60;16.00;;;23.70;99.90;;;;;;4940309;28;20141;-81
2021/07/27 11:15:14;;;;;;;16.70;15.38;;;23.60;99.90;;;;;;4955501;28;20594;-82
2021/07/27 11:18:02;;;;;;;18.45;16.77;;;23.70;99.90;;;;;;4939949;28;20051;-85
2021/07/27 11:20:38;;;;;;;18.85;17.33;;;23.50;99.90;;;;;;4941004;28;20432;-87
2021/07/27 11:23:16;;;;;;;17.83;16.42;;;23.60;99.90;;;;;;4956222;28;20046;-82
2021/07/27 11:25:49;;;;;;;18.58;17.08;;;23.80;99.90;;;;;;4970152;28;20510;-83
2021/07/27 11:28:19;;;;;;;20.05;18.52;;;24.00;99.90;;;;;;4953010;29;20448;-84
2021/07/27 11:30:51;;;;;;;18.48;16.98;;;24.20;99.90;;;;;;4932199;28;20074;-84
2021/07/27 11:33:19;;;;;;;19.10;17.60;;;24.20;99.90;;;;;;4939643;28;20066;-82
2021/07/27 11:35:53;;;;;;;19.25;17.40;;;24.50;99.90;;;;;;4947633;28;20130;-81
2021/07/27 11:38:32;;;;;;;17.02;15.70;;;24.60;99.90;;;;;;4929920;28;20193;-83
2021/07/27 11:41:10;;;;;;;17.40;15.80;;;24.70;99.90;;;;;;4907557;28;20047;-83
2021/07/27 11:43:42;;;;;;;17.27;15.77;;;24.70;99.90;;;;;;4925654;28;20515;-84
2021/07/27 11:46:20;;;;;;;17.40;16.08;;;24.60;99.90;;;;;;4930346;29;20661;-82
2021/07/27 11:48:53;;;;;;;17.88;16.23;;;24.50;99.90;;;;;;4937581;28;20046;-84
2021/07/27 11:51:32;;;;;;;16.70;15.20;;;24.40;99.90;;;;;;4921613;28;20514;-85
2021/07/27 11:54:14;;;;;;;17.35;15.85;;;24.80;99.90;;;;;;4916980;29;20146;-85
2021/07/27 11:56:48;;;;;;;17.60;16.00;;;25.00;99.90;;;;;;4950081;28;20047;-79
2021/07/27 11:59:28;;;;;;;16.75;15.55;;;24.70;99.90;;;;;;4919744;28;20472;-80
2021/07/27 12:01:57;;;;;;;17.90;16.60;;;24.50;99.90;;;;;;4963697;28;20140;-80
2021/07/27 12:04:43;;;;;;;16.65;15.20;;;24.30;99.90;;;;;;4963077;28;20161;-84
2021/07/27 12:07:32;;;;;;;16.80;15.52;;;24.60;99.90;;;;;;4917241;28;20508;-83
2021/07/27 12:10:07;;;;;;;16.48;15.07;;;25.10;99.90;;;;;;4919168;29;20078;-83
2021/07/27 12:12:38;;;;;;;16.80;15.27;;;25.40;99.90;;;;;;4945870;28;20091;-84
2021/07/27 12:15:12;;;;;;;16.70;15.43;;;25.00;99.90;;;;;;4946484;28;20090;-80
2021/07/27 12:17:41;;;;;;;18.40;16.65;;;24.80;99.90;;;;;;4918359;28;20059;-80
2021/07/27 12:20:12;;;;;;;18.02;16.52;;;24.70;99.90;;;;;;4953557;28;20050;-81
2021/07/27 12:22:40;;;;;;;17.92;16.27;;;24.90;99.90;;;;;;4921027;28;20047;-82
2021/07/27 12:25:08;;;;;;;18.00;16.70;;;25.00;99.90;;;;;;4921736;28;20043;-82
2021/07/27 12:27:38;;;;;;;17.92;16.52;;;25.30;99.90;;;;;;4921392;28;20141;-81
2021/07/27 12:30:06;;;;;;;18.27;16.83;;;25.60;99.90;;;;;;4953073;28;20050;-80
2021/07/27 12:32:33;;;;;;;18.02;16.52;;;25.80;99.90;;;;;;4951191;28;20055;-81
2021/07/27 12:35:17;;;;;;;17.20;15.90;;;25.80;99.90;;;;;;4948252;28;20051;-81
2021/07/27 12:37:47;;;;;;;17.45;15.73;;;25.70;99.90;;;;;;4932285;29;20082;-80
2021/07/27 12:40:21;;;;;;;16.38;15.00;;;25.40;99.90;;;;;;4951659;28;20050;-81
2021/07/27 12:42:49;;;;;;;15.55;14.45;;;25.20;99.90;;;;;;4948709;28;20046;-83
2021/07/27 12:45:21;;;;;;;16.00;14.70;;;25.40;99.90;;;;;;4963860;28;20054;-76
2021/07/27 12:47:55;;;;;;;16.55;15.15;;;25.40;99.90;;;;;;4932056;28;20142;-75
2021/07/27 12:50:37;;;;;;;15.85;14.75;;;25.00;99.90;;;;;;4939860;28;20077;-76
2021/07/27 12:53:32;;;;;;;15.10;13.90;;;24.90;99.90;;;;;;4912472;29;20077;-74
2021/07/27 12:56:23;;;;;;;15.68;14.57;;;24.70;99.90;;;;;;4912111;29;20508;-75
2021/07/27 12:58:57;;;;;;;16.00;14.88;;;24.80;99.90;;;;;;4937406;28;20475;-76
2021/07/27 13:01:51;;;;;;;16.10;14.68;;;24.50;99.90;;;;;;4946686;28;20065;-76
2021/07/27 13:04:24;;;;;;;16.27;14.63;;;24.80;99.90;;;;;;4936784;28;20046;-76